Time;durP1;ratioP1;P1;durP2;ratioP2;P2;SDS_P1;SDS_P2;PMS_P1;PMS_P2;Temp;Humidity;BMP_temperature;BMP_pressure;BME280_temperature;BME280_humidity;BME280_pressure;Samples;Min_cycle;Max_cycle;Signal;HPM_P1;HPM_P2
2023/12/12 00:01:23;;;;;;;699.23;660.57;;;5.60;99.90;;;;;;5014810;28;20038;-75
2023/12/12 00:03:49;;;;;;;646.63;611.80;;;5.50;99.90;;;;;;5013899;28;20053;-75
2023/12/12 00:06:14;;;;;;;605.67;574.70;;;5.50;99.90;;;;;;5014228;28;20130;-75
2023/12/12 00:08:40;;;;;;;677.93;640.37;;;5.40;99.90;;;;;;4994210;28;20041;-75
2023/12/12 00:11:06;;;;;;;593.90;563.73;;;5.30;99.90;;;;;;5014094;28;20059;-74
2023/12/12 00:13:32;;;;;;;625.70;593.37;;;5.20;99.90;;;;;;5013748;28;20184;-75
2023/12/12 00:15:57;;;;;;;586.77;556.87;;;5.10;99.90;;;;;;4997900;28;20048;-75
2023/12/12 00:18:23;;;;;;;580.47;551.20;;;5.00;99.90;;;;;;4997861;28;20038;-75
2023/12/12 00:20:49;;;;;;;547.33;519.93;;;4.90;99.90;;;;;;5013832;28;20044;-75
2023/12/12 00:23:15;;;;;;;520.40;495.35;;;4.80;99.90;;;;;;5013888;28;20038;-75
2023/12/12 00:25:41;;;;;;;559.50;531.90;;;4.60;99.90;;;;;;4996119;28;20065;-74
2023/12/12 00:28:07;;;;;;;562.60;534.87;;;4.50;99.90;;;;;;5014794;28;20049;-74
2023/12/12 00:30:33;;;;;;;537.93;511.47;;;4.40;99.90;;;;;;4997291;28;20056;-74
2023/12/12 00:32:58;;;;;;;512.23;487.47;;;4.30;99.90;;;;;;5013613;28;20053;-74
2023/12/12 00:35:24;;;;;;;491.07;468.37;;;4.20;99.90;;;;;;4996564;28;20289;-74
2023/12/12 00:37:50;;;;;;;483.40;460.53;;;4.20;99.90;;;;;;5013904;28;20037;-75
2023/12/12 00:40:16;;;;;;;501.03;476.83;;;4.10;99.90;;;;;;5016070;28;20116;-74
2023/12/12 00:42:41;;;;;;;535.90;509.20;;;4.00;99.90;;;;;;4998737;28;20044;-73
2023/12/12 00:45:08;;;;;;;529.57;503.20;;;3.90;99.90;;;;;;5013419;28;20049;-74
2023/12/12 00:47:34;;;;;;;552.10;524.55;;;3.80;99.90;;;;;;5013272;28;20049;-73
2023/12/12 00:50:00;;;;;;;515.70;489.90;;;3.70;99.90;;;;;;4998106;28;20049;-74
2023/12/12 00:52:25;;;;;;;496.67;473.30;;;3.60;99.90;;;;;;4999645;28;20287;-73
2023/12/12 00:54:51;;;;;;;458.10;436.37;;;3.50;99.90;;;;;;4997173;28;20042;-75
2023/12/12 00:57:17;;;;;;;517.53;492.83;;;3.40;99.90;;;;;;4995907;28;20486;-74
2023/12/12 00:59:42;;;;;;;535.10;508.93;;;3.30;99.90;;;;;;5012507;28;20049;-75
2023/12/12 01:02:08;;;;;;;515.17;489.73;;;3.20;99.90;;;;;;4995509;28;20056;-74
2023/12/12 01:04:34;;;;;;;498.60;474.83;;;3.10;99.90;;;;;;4991437;28;20140;-75
2023/12/12 01:07:01;;;;;;;536.00;508.83;;;3.00;99.90;;;;;;4995837;28;20398;-74
2023/12/12 01:13:07;;;;;;;387.88;370.83;;;2.90;99.90;;;;;;5001877;28;20548;-74
2023/12/12 01:15:33;;;;;;;513.27;488.27;;;2.80;99.90;;;;;;4991578;28;20038;-75
2023/12/12 01:17:59;;;;;;;445.20;424.37;;;2.80;99.90;;;;;;4992936;28;20526;-74
2023/12/12 01:20:24;;;;;;;481.63;459.40;;;2.70;99.90;;;;;;4997314;28;20050;-75
2023/12/12 01:22:50;;;;;;;414.63;395.53;;;2.70;99.90;;;;;;4996127;28;20123;-74
2023/12/12 01:25:16;;;;;;;423.73;404.03;;;2.70;99.90;;;;;;4995887;28;20045;-73
2023/12/12 01:27:41;;;;;;;472.37;450.23;;;2.60;99.90;;;;;;4993426;28;20116;-73
2023/12/12 01:30:07;;;;;;;400.57;382.37;;;2.60;99.90;;;;;;5009260;28;20050;-73
2023/12/12 01:32:33;;;;;;;508.88;484.02;;;2.50;99.90;;;;;;4994080;28;20048;-73
2023/12/12 01:34:59;;;;;;;434.97;415.00;;;2.40;99.90;;;;;;5016865;28;20502;-73
2023/12/12 01:37:26;;;;;;;425.83;406.03;;;2.40;99.90;;;;;;5012366;28;20229;-73
2023/12/12 01:39:51;;;;;;;399.23;380.35;;;2.30;99.90;;;;;;5011686;28;20489;-73
2023/12/12 01:42:17;;;;;;;436.60;416.27;;;2.20;99.90;;;;;;5012714;28;20037;-74
2023/12/12 01:44:43;;;;;;;396.57;378.73;;;2.20;99.90;;;;;;5006364;28;20038;-74
2023/12/12 01:47:09;;;;;;;428.13;408.77;;;2.10;99.90;;;;;;5018073;28;20042;-75
2023/12/12 01:49:35;;;;;;;389.42;372.33;;;2.10;99.90;;;;;;4995826;28;20078;-75
2023/12/12 01:52:01;;;;;;;428.55;408.55;;;2.10;99.90;;;;;;5009821;28;20112;-75
2023/12/12 01:54:29;;;;;;;440.10;418.88;;;2.10;99.90;;;;;;5011578;28;20038;-76
2023/12/12 01:56:56;;;;;;;482.77;459.50;;;2.10;99.90;;;;;;4995840;28;20049;-73
2023/12/12 01:59:22;;;;;;;481.15;458.13;;;2.00;99.90;;;;;;4999041;28;20049;-74
2023/12/12 02:01:49;;;;;;;434.02;413.02;;;2.00;99.90;;;;;;5011379;28;20195;-74
2023/12/12 02:04:16;;;;;;;489.42;465.25;;;2.00;99.90;;;;;;5005276;28;20046;-74
2023/12/12 02:06:44;;;;;;;449.05;426.92;;;2.00;99.90;;;;;;5011125;28;20041;-75
2023/12/12 02:09:11;;;;;;;425.05;405.25;;;2.00;99.90;;;;;;5012406;28;20045;-75
2023/12/12 02:11:36;;;;;;;407.67;388.77;;;1.90;99.90;;;;;;5010162;28;20038;-74
2023/12/12 02:14:02;;;;;;;384.03;367.17;;;2.00;99.90;;;;;;5011174;28;20405;-74
2023/12/12 02:16:28;;;;;;;394.83;376.50;;;2.00;99.90;;;;;;4992682;28;20042;-74
2023/12/12 02:18:53;;;;;;;437.07;416.43;;;2.00;99.90;;;;;;5012522;28;20133;-75
2023/12/12 02:21:20;;;;;;;414.60;395.27;;;2.00;99.90;;;;;;5012968;28;20069;-75
2023/12/12 02:23:49;;;;;;;507.33;482.08;;;2.00;99.90;;;;;;4992067;28;20049;-75
2023/12/12 02:26:15;;;;;;;440.60;420.35;;;2.00;99.90;;;;;;4994752;28;20391;-75
2023/12/12 02:28:41;;;;;;;486.88;463.08;;;2.00;99.90;;;;;;5011570;28;20048;-76
2023/12/12 02:31:07;;;;;;;445.53;423.87;;;2.00;99.90;;;;;;4994385;28;20205;-76
2023/12/12 02:33:33;;;;;;;439.48;417.92;;;2.00;99.90;;;;;;4990572;28;20030;-76
2023/12/12 02:35:58;;;;;;;375.10;358.07;;;2.00;99.90;;;;;;4995139;28;20068;-75
2023/12/12 02:38:24;;;;;;;484.70;461.23;;;2.00;99.90;;;;;;5009810;28;20041;-76
2023/12/12 02:40:50;;;;;;;452.17;429.97;;;2.00;99.90;;;;;;5011579;28;20042;-76
2023/12/12 02:43:15;;;;;;;459.67;436.83;;;2.10;99.90;;;;;;5013644;28;20042;-76
2023/12/12 02:45:41;;;;;;;458.87;436.37;;;2.10;99.90;;;;;;5011330;28;20482;-75
2023/12/12 02:48:07;;;;;;;433.37;412.73;;;2.10;99.90;;;;;;5011290;28;20072;-76
2023/12/12 02:50:32;;;;;;;467.60;444.37;;;2.10;99.90;;;;;;5010607;28;20077;-76
2023/12/12 02:52:58;;;;;;;541.17;514.00;;;2.10;99.90;;;;;;5010946;28;20395;-76
2023/12/12 02:55:24;;;;;;;509.23;483.30;;;2.20;99.90;;;;;;4994977;28;20125;-76
2023/12/12 02:57:49;;;;;;;468.40;445.07;;;2.20;99.90;;;;;;5011149;28;20045;-76
2023/12/12 03:00:15;;;;;;;533.37;506.33;;;2.20;99.90;;;;;;5011604;28;20038;-76
2023/12/12 03:02:41;;;;;;;511.13;485.43;;;2.20;99.90;;;;;;4994695;28;20042;-76
2023/12/12 03:05:07;;;;;;;538.87;511.67;;;2.20;99.90;;;;;;5011082;28;20122;-76
2023/12/12 03:07:33;;;;;;;446.25;424.98;;;2.10;99.90;;;;;;4994186;28;20038;-76
2023/12/12 03:09:58;;;;;;;530.60;503.40;;;2.10;99.90;;;;;;5010621;28;20053;-76
2023/12/12 03:12:24;;;;;;;483.03;458.60;;;2.00;99.90;;;;;;5010501;28;20056;-76
2023/12/12 03:14:50;;;;;;;489.53;465.20;;;2.00;99.90;;;;;;5010656;28;20387;-76
2023/12/12 03:17:15;;;;;;;399.43;380.60;;;2.00;99.90;;;;;;4995513;28;20042;-76
2023/12/12 03:19:41;;;;;;;407.10;387.83;;;2.00;99.90;;;;;;5011605;28;20292;-77
2023/12/12 03:22:07;;;;;;;470.30;447.40;;;2.00;99.90;;;;;;5010940;28;20046;-76
2023/12/12 03:24:33;;;;;;;479.00;455.50;;;1.90;99.90;;;;;;5009910;28;20054;-76
2023/12/12 03:26:58;;;;;;;468.30;444.23;;;2.00;99.90;;;;;;5010611;28;20045;-76
2023/12/12 03:29:24;;;;;;;481.80;457.23;;;2.00;99.90;;;;;;4994733;28;20054;-76
2023/12/12 03:31:50;;;;;;;466.17;443.03;;;2.00;99.90;;;;;;4994253;28;20050;-77
2023/12/12 03:34:15;;;;;;;500.47;475.27;;;2.00;99.90;;;;;;4994667;28;20038;-77
2023/12/12 03:36:45;;;;;;;483.77;459.63;;;2.10;99.90;;;;;;5011120;28;20064;-77
2023/12/12 03:39:11;;;;;;;495.15;470.40;;;2.10;99.90;;;;;;5010801;28;20034;-76
2023/12/12 03:41:38;;;;;;;514.65;488.42;;;2.10;99.90;;;;;;4997887;28;20501;-77
2023/12/12 03:44:04;;;;;;;554.45;525.33;;;2.10;99.90;;;;;;4993807;28;20080;-77
2023/12/12 03:46:29;;;;;;;596.70;564.58;;;2.20;99.90;;;;;;4997619;28;20053;-77
2023/12/12 03:48:55;;;;;;;571.97;542.63;;;2.20;99.90;;;;;;4994569;28;20038;-77
2023/12/12 03:51:21;;;;;;;532.60;504.33;;;2.20;99.90;;;;;;4995141;28;20034;-77
2023/12/12 03:53:46;;;;;;;571.30;540.67;;;2.20;99.90;;;;;;4993017;28;20120;-77
2023/12/12 03:56:12;;;;;;;581.00;550.13;;;2.20;99.90;;;;;;5013229;28;20042;-76
2023/12/12 03:58:38;;;;;;;533.23;505.33;;;2.20;99.90;;;;;;5015019;28;20522;-77
2023/12/12 04:01:04;;;;;;;564.70;534.67;;;2.20;99.90;;;;;;4985868;28;20042;-76
2023/12/12 04:03:31;;;;;;;536.83;508.33;;;2.20;99.90;;;;;;5009816;28;20054;-77
2023/12/12 04:05:57;;;;;;;583.25;552.88;;;2.30;99.90;;;;;;4993084;28;20038;-77
2023/12/12 04:08:22;;;;;;;588.77;557.03;;;2.30;99.90;;;;;;4995213;28;20033;-77
2023/12/12 04:10:48;;;;;;;561.17;530.87;;;2.40;99.90;;;;;;4989141;28;20042;-77
2023/12/12 04:13:14;;;;;;;606.23;572.90;;;2.40;99.90;;;;;;4989423;28;20034;-77
2023/12/12 04:15:39;;;;;;;575.93;545.60;;;2.50;99.90;;;;;;5005438;28;20041;-77
2023/12/12 04:18:05;;;;;;;559.27;529.43;;;2.50;99.90;;;;;;4993679;28;20076;-76
2023/12/12 04:20:31;;;;;;;623.57;589.37;;;2.50;99.90;;;;;;5007081;28;20120;-76
2023/12/12 04:22:56;;;;;;;623.07;588.40;;;2.60;99.90;;;;;;4994458;28;20108;-77
2023/12/12 04:25:23;;;;;;;585.87;554.93;;;2.60;99.90;;;;;;5013864;28;20094;-77
2023/12/12 04:27:49;;;;;;;664.58;627.63;;;2.60;99.90;;;;;;5010012;28;20049;-77
2023/12/12 04:30:15;;;;;;;649.88;612.90;;;2.50;99.90;;;;;;5011022;28;20137;-76
2023/12/12 04:32:40;;;;;;;647.53;611.73;;;2.50;99.90;;;;;;5011122;28;20117;-77
2023/12/12 04:35:09;;;;;;;646.07;610.00;;;2.50;99.90;;;;;;5009295;28;20034;-76
2023/12/12 04:37:35;;;;;;;621.25;587.30;;;2.40;99.90;;;;;;5010580;28;20046;-77
2023/12/12 04:40:01;;;;;;;607.80;575.33;;;2.40;99.90;;;;;;5013480;28;20053;-77
2023/12/12 04:42:26;;;;;;;548.70;519.23;;;2.40;99.90;;;;;;4997888;28;20050;-77
2023/12/12 04:44:52;;;;;;;559.03;529.30;;;2.30;99.90;;;;;;5013234;28;20038;-77
2023/12/12 04:47:18;;;;;;;580.77;550.07;;;2.30;99.90;;;;;;5013906;28;20077;-77
2023/12/12 04:49:43;;;;;;;575.03;544.20;;;2.30;99.90;;;;;;5013289;28;20049;-77
2023/12/12 04:52:09;;;;;;;593.77;560.97;;;2.30;99.90;;;;;;5009312;28;20045;-77
2023/12/12 04:54:35;;;;;;;556.00;526.53;;;2.40;99.90;;;;;;4996740;28;20042;-77
2023/12/12 04:57:01;;;;;;;555.60;524.80;;;2.40;99.90;;;;;;5012999;28;20139;-77
2023/12/12 04:59:27;;;;;;;603.60;570.08;;;2.40;99.90;;;;;;5013102;28;20108;-77
2023/12/12 05:01:52;;;;;;;501.63;475.13;;;2.40;99.90;;;;;;5016621;28;20045;-78
2023/12/12 05:04:18;;;;;;;532.67;504.60;;;2.30;99.90;;;;;;5012885;28;20041;-77
2023/12/12 05:06:44;;;;;;;586.97;554.63;;;2.30;99.90;;;;;;5014293;28;20534;-77
2023/12/12 05:09:09;;;;;;;523.37;495.60;;;2.30;99.90;;;;;;5011527;28;20038;-78
2023/12/12 05:11:36;;;;;;;527.73;499.60;;;2.30;99.90;;;;;;4996144;28;20120;-78
2023/12/12 05:14:04;;;;;;;582.13;549.60;;;2.30;99.90;;;;;;5012363;28;20538;-78
2023/12/12 05:16:30;;;;;;;532.72;504.55;;;2.30;99.90;;;;;;4994301;28;20033;-78
2023/12/12 05:18:56;;;;;;;524.63;497.05;;;2.40;99.90;;;;;;5014095;28;20042;-77
2023/12/12 05:21:22;;;;;;;564.97;533.15;;;2.40;99.90;;;;;;5013911;28;20048;-78
2023/12/12 05:23:49;;;;;;;563.33;532.57;;;2.40;99.90;;;;;;4995898;28;20042;-78
2023/12/12 05:26:17;;;;;;;607.90;574.22;;;2.50;99.90;;;;;;5012319;28;20343;-77
2023/12/12 05:28:43;;;;;;;636.13;600.83;;;2.60;99.90;;;;;;5012089;28;20046;-77
2023/12/12 05:31:08;;;;;;;609.57;574.43;;;2.70;99.90;;;;;;5012091;28;20127;-77
2023/12/12 05:33:35;;;;;;;687.78;646.30;;;2.80;99.90;;;;;;5005980;28;20095;-77
2023/12/12 05:36:01;;;;;;;707.87;663.93;;;3.00;99.90;;;;;;4996552;28;20445;-78
2023/12/12 05:38:26;;;;;;;717.40;674.97;;;3.10;99.90;;;;;;5012329;28;20046;-77
2023/12/12 05:40:52;;;;;;;728.63;683.03;;;3.20;99.90;;;;;;5012005;28;20117;-77
2023/12/12 05:43:18;;;;;;;756.60;710.90;;;3.30;99.90;;;;;;5014065;28;20096;-78
2023/12/12 05:45:45;;;;;;;727.78;682.33;;;3.30;99.90;;;;;;4996402;28;20128;-77
2023/12/12 05:48:10;;;;;;;694.08;649.70;;;3.30;99.90;;;;;;5010045;28;20045;-78
2023/12/12 05:50:36;;;;;;;760.10;712.73;;;3.40;99.90;;;;;;4993634;28;20038;-77
2023/12/12 05:53:02;;;;;;;729.43;683.90;;;3.40;99.90;;;;;;5009984;28;20057;-78
2023/12/12 05:55:28;;;;;;;763.97;714.90;;;3.40;99.90;;;;;;5011774;28;20053;-75
2023/12/12 05:57:54;;;;;;;700.67;658.78;;;3.50;99.90;;;;;;4994528;28;20087;-75
2023/12/12 06:00:20;;;;;;;736.57;689.97;;;3.50;99.90;;;;;;5011465;28;20050;-75
2023/12/12 06:02:46;;;;;;;747.27;700.47;;;3.50;99.90;;;;;;5011142;28;20053;-76
2023/12/12 06:05:12;;;;;;;812.60;758.90;;;3.60;99.90;;;;;;5012103;28;20061;-76
2023/12/12 06:07:38;;;;;;;783.23;732.63;;;3.60;99.90;;;;;;5013278;28;20053;-76
2023/12/12 06:10:08;;;;;;;759.63;710.80;;;3.60;99.90;;;;;;5011904;28;20042;-75
2023/12/12 06:12:37;;;;;;;814.35;761.45;;;3.60;99.90;;;;;;5006175;28;20045;-76
2023/12/12 06:15:07;;;;;;;789.72;740.10;;;3.70;99.90;;;;;;5011675;28;20498;-76
2023/12/12 06:17:34;;;;;;;801.53;749.17;;;3.70;99.90;;;;;;5006495;28;20045;-75
2023/12/12 06:19:59;;;;;;;754.20;706.15;;;3.70;99.90;;;;;;5009831;28;20034;-75
2023/12/12 06:22:25;;;;;;;770.50;722.33;;;3.70;99.90;;;;;;5009693;28;20113;-75
2023/12/12 06:24:51;;;;;;;797.27;744.23;;;3.70;99.90;;;;;;4995025;28;20069;-75
2023/12/12 06:27:17;;;;;;;760.43;710.90;;;3.70;99.90;;;;;;5011646;28;20124;-75
2023/12/12 06:29:43;;;;;;;831.80;777.13;;;3.70;99.90;;;;;;5010953;28;20088;-75
2023/12/12 06:32:09;;;;;;;805.10;751.63;;;3.70;99.90;;;;;;5011205;28;20042;-75
2023/12/12 06:34:34;;;;;;;776.63;726.58;;;3.70;99.90;;;;;;4994055;28;20049;-76
2023/12/12 06:37:00;;;;;;;798.43;743.73;;;3.70;99.90;;;;;;4994161;28;20446;-75
2023/12/12 06:39:26;;;;;;;803.47;750.17;;;3.70;99.90;;;;;;5011290;28;20050;-75
2023/12/12 06:41:51;;;;;;;791.60;739.57;;;3.70;99.90;;;;;;5009378;28;20049;-75
2023/12/12 06:44:17;;;;;;;822.97;768.70;;;3.70;99.90;;;;;;4996277;28;20041;-75
2023/12/12 06:46:43;;;;;;;800.87;747.83;;;3.70;99.90;;;;;;5008971;28;20040;-76
2023/12/12 06:49:09;;;;;;;779.87;728.17;;;3.70;99.90;;;;;;5011337;28;20099;-76
2023/12/12 06:51:35;;;;;;;818.58;764.90;;;3.80;99.90;;;;;;5009521;28;20500;-76
2023/12/12 06:54:03;;;;;;;817.17;762.70;;;3.80;99.90;;;;;;4994500;28;20095;-76
2023/12/12 06:56:30;;;;;;;821.05;766.30;;;3.80;99.90;;;;;;4993868;28;20042;-76
2023/12/12 06:58:56;;;;;;;843.17;785.55;;;3.80;99.90;;;;;;5015177;28;20057;-75
2023/12/12 07:01:22;;;;;;;813.47;757.30;;;3.80;99.90;;;;;;5011279;28;20041;-75
2023/12/12 07:03:48;;;;;;;835.38;777.22;;;3.80;99.90;;;;;;5014248;28;20197;-75
2023/12/12 07:06:17;;;;;;;824.20;769.40;;;3.80;99.90;;;;;;5009577;28;20199;-75
2023/12/12 07:08:43;;;;;;;811.75;755.97;;;3.90;99.90;;;;;;4993692;28;20038;-75
2023/12/12 07:11:08;;;;;;;794.70;741.97;;;3.90;99.90;;;;;;4994494;28;20096;-75
2023/12/12 07:13:34;;;;;;;791.10;738.53;;;3.90;99.90;;;;;;5007092;28;20118;-75
2023/12/12 07:16:00;;;;;;;815.90;760.90;;;3.90;99.90;;;;;;5008876;28;20038;-76
2023/12/12 07:18:26;;;;;;;814.50;758.40;;;4.00;99.90;;;;;;4995436;28;20052;-74
2023/12/12 07:20:53;;;;;;;839.27;780.67;;;4.00;99.90;;;;;;4991887;28;20451;-75
2023/12/12 07:23:18;;;;;;;804.00;750.55;;;4.00;99.90;;;;;;5009418;28;20088;-75
2023/12/12 07:25:46;;;;;;;817.47;758.40;;;4.10;99.90;;;;;;4995535;28;20046;-74
2023/12/12 07:28:11;;;;;;;817.78;759.30;;;4.10;99.90;;;;;;4995673;28;20124;-75
2023/12/12 07:30:37;;;;;;;816.50;760.63;;;4.10;99.90;;;;;;5010574;28;20113;-75
2023/12/12 07:33:03;;;;;;;859.37;797.10;;;4.20;99.90;;;;;;5011661;28;20103;-75
2023/12/12 07:35:28;;;;;;;807.10;749.30;;;4.20;99.90;;;;;;5011339;28;20037;-76
2023/12/12 07:37:54;;;;;;;855.27;792.53;;;4.30;99.90;;;;;;5009428;28;20029;-76
2023/12/12 07:40:20;;;;;;;823.27;760.77;;;4.30;99.90;;;;;;5012539;28;20049;-76
2023/12/12 07:42:46;;;;;;;859.40;797.33;;;4.30;99.90;;;;;;4992468;28;20049;-76
2023/12/12 07:45:12;;;;;;;857.80;793.90;;;4.30;99.90;;;;;;4994807;28;20042;-75
2023/12/12 07:47:38;;;;;;;849.40;786.35;;;4.30;99.90;;;;;;4994592;28;20055;-75
2023/12/12 07:50:06;;;;;;;815.63;750.67;;;4.30;99.90;;;;;;4990319;28;20046;-75
2023/12/12 07:52:33;;;;;;;858.95;792.13;;;4.30;99.90;;;;;;5006755;28;20050;-75
2023/12/12 07:54:59;;;;;;;838.65;775.50;;;4.30;99.90;;;;;;4991191;28;20108;-75
2023/12/12 07:57:25;;;;;;;905.63;830.73;;;4.30;99.90;;;;;;4986938;28;20046;-74
2023/12/12 07:59:50;;;;;;;886.03;804.38;;;4.30;99.90;;;;;;5005200;28;20045;-75
2023/12/12 08:02:16;;;;;;;923.97;836.43;;;4.30;99.90;;;;;;5011073;28;20041;-75
2023/12/12 08:04:42;;;;;;;891.00;799.27;;;4.30;99.90;;;;;;5007976;28;20049;-75
2023/12/12 08:07:08;;;;;;;946.80;856.13;;;4.30;99.90;;;;;;4994126;28;20096;-75
2023/12/12 08:09:35;;;;;;;993.78;868.75;;;4.20;99.90;;;;;;5007227;28;20050;-75
2023/12/12 08:12:00;;;;;;;875.97;788.70;;;4.20;99.90;;;;;;4996409;28;20070;-75
2023/12/12 08:14:26;;;;;;;916.50;808.87;;;4.10;99.90;;;;;;4997268;28;20064;-74
2023/12/12 08:16:52;;;;;;;943.17;839.27;;;4.10;99.90;;;;;;4998186;28;20030;-75
2023/12/12 08:19:18;;;;;;;1175.57;835.97;;;4.00;99.90;;;;;;5014543;28;20062;-75
2023/12/12 08:21:43;;;;;;;887.63;802.57;;;4.00;99.90;;;;;;5010879;28;20498;-75
2023/12/12 08:24:09;;;;;;;864.83;789.83;;;3.90;99.90;;;;;;4991632;28;20037;-75
2023/12/12 08:26:46;;;;;;;922.70;833.83;;;3.80;99.90;;;;;;5001018;28;20129;-75
2023/12/12 08:29:14;;;;;;;847.95;779.58;;;3.80;99.90;;;;;;4988999;28;20030;-75
2023/12/12 08:31:40;;;;;;;852.58;783.35;;;3.70;99.90;;;;;;5015991;28;20122;-75
2023/12/12 08:34:07;;;;;;;967.67;863.25;;;3.70;99.90;;;;;;5013091;28;20084;-75
2023/12/12 08:36:33;;;;;;;885.05;803.80;;;3.70;99.90;;;;;;5012025;28;20070;-75
2023/12/12 08:39:00;;;;;;;879.58;799.00;;;3.70;99.90;;;;;;5012818;28;20463;-75
2023/12/12 08:41:28;;;;;;;951.03;846.55;;;3.60;99.90;;;;;;5012862;28;20124;-74
2023/12/12 08:43:55;;;;;;;926.72;835.72;;;3.60;99.90;;;;;;4997059;28;20038;-74
2023/12/12 08:46:26;;;;;;;1015.72;872.17;;;3.70;99.90;;;;;;4995541;28;20042;-74
2023/12/12 08:48:56;;;;;;;1186.40;900.88;;;3.60;99.90;;;;;;5011533;28;20501;-76
2023/12/12 08:51:22;;;;;;;915.53;827.20;;;3.60;99.90;;;;;;5013228;28;20069;-75
2023/12/12 08:53:49;;;;;;;956.25;863.47;;;3.60;99.90;;;;;;4997392;28;20486;-76
2023/12/12 08:56:16;;;;;;;847.53;764.05;;;3.70;99.90;;;;;;4997533;28;20495;-76
2023/12/12 08:58:46;;;;;;;872.47;792.30;;;3.70;99.90;;;;;;5011911;28;20038;-76
2023/12/12 09:01:14;;;;;;;847.45;770.75;;;3.70;99.90;;;;;;4994065;28;20494;-76
2023/12/12 09:03:40;;;;;;;896.17;809.00;;;3.80;99.90;;;;;;4997143;28;20077;-76
2023/12/12 09:06:07;;;;;;;940.92;848.95;;;3.80;99.90;;;;;;5013091;28;20060;-76
2023/12/12 09:08:32;;;;;;;935.70;845.42;;;3.90;99.90;;;;;;5013595;28;20049;-76
2023/12/12 09:10:59;;;;;;;904.73;814.73;;;3.90;99.90;;;;;;5012963;28;20045;-76
2023/12/12 09:13:25;;;;;;;939.63;845.47;;;4.00;99.90;;;;;;4994471;28;20048;-76
2023/12/12 09:15:51;;;;;;;937.20;844.83;;;4.00;99.90;;;;;;4996893;28;20365;-76
2023/12/12 09:18:17;;;;;;;854.63;781.53;;;4.10;99.90;;;;;;4996728;28;20121;-76
2023/12/12 09:20:42;;;;;;;930.43;837.27;;;4.10;99.90;;;;;;5013049;28;20490;-76
2023/12/12 09:23:08;;;;;;;884.50;809.23;;;4.20;99.90;;;;;;5011683;28;20041;-76
2023/12/12 09:25:34;;;;;;;987.27;882.07;;;4.20;99.90;;;;;;5012494;28;20624;-76
2023/12/12 09:27:59;;;;;;;902.97;827.00;;;4.20;99.90;;;;;;5012845;28;20129;-76
2023/12/12 09:30:25;;;;;;;1259.73;981.20;;;4.20;99.90;;;;;;5011923;28;20132;-76
2023/12/12 09:32:51;;;;;;;1279.10;894.53;;;4.20;99.90;;;;;;5018169;28;20046;-76
2023/12/12 09:35:17;;;;;;;896.70;810.63;;;4.20;99.90;;;;;;5009431;28;20160;-76
2023/12/12 09:37:42;;;;;;;997.20;899.80;;;4.20;99.90;;;;;;5012481;28;20038;-76
2023/12/12 09:40:11;;;;;;;1068.50;920.20;;;4.20;99.90;;;;;;5012310;28;20041;-76
2023/12/12 09:42:40;;;;;;;960.45;864.38;;;4.20;99.90;;;;;;4997207;28;20111;-76
2023/12/12 09:45:13;;;;;;;855.83;770.95;;;4.20;99.90;;;;;;5011912;28;20044;-76
2023/12/12 09:47:44;;;;;;;911.15;823.72;;;4.30;99.90;;;;;;4995138;28;20486;-76
2023/12/12 09:50:11;;;;;;;917.92;840.30;;;4.30;99.90;;;;;;4995501;28;20042;-76
2023/12/12 09:52:37;;;;;;;882.53;811.50;;;4.30;99.90;;;;;;5010110;28;20042;-76
2023/12/12 09:55:06;;;;;;;921.28;829.53;;;4.40;99.90;;;;;;5009544;28;20034;-76
2023/12/12 09:57:33;;;;;;;944.72;858.05;;;4.40;99.90;;;;;;4988531;28;20030;-76
2023/12/12 09:59:59;;;;;;;909.42;835.08;;;4.40;99.90;;;;;;5009541;28;20041;-76
2023/12/12 10:02:35;;;;;;;911.55;823.65;;;4.40;99.90;;;;;;5008630;28;20046;-76
2023/12/12 10:05:05;;;;;;;895.22;803.83;;;4.40;99.90;;;;;;4985304;28;20402;-76
2023/12/12 10:07:31;;;;;;;944.95;850.40;;;4.40;99.90;;;;;;4994917;28;20402;-75
2023/12/12 10:09:57;;;;;;;949.95;848.13;;;4.40;99.90;;;;;;4995722;28;20085;-76
2023/12/12 10:12:23;;;;;;;915.07;832.53;;;4.30;99.90;;;;;;4995268;28;20101;-76
2023/12/12 10:14:48;;;;;;;892.73;812.10;;;4.40;99.90;;;;;;5012055;28;20363;-75
2023/12/12 10:17:14;;;;;;;828.43;759.97;;;4.40;99.90;;;;;;4995648;28;20045;-76
2023/12/12 10:19:41;;;;;;;813.67;753.70;;;4.40;99.90;;;;;;5012042;28;20038;-76
2023/12/12 10:22:10;;;;;;;755.75;693.80;;;4.40;99.90;;;;;;5010660;28;20383;-76
2023/12/12 10:24:37;;;;;;;802.10;741.67;;;4.40;99.90;;;;;;5009701;28;20046;-76
2023/12/12 10:27:04;;;;;;;767.10;713.50;;;4.40;99.90;;;;;;5011063;28;20052;-76
2023/12/12 10:29:31;;;;;;;745.70;695.65;;;4.50;99.90;;;;;;5025296;28;20117;-76
2023/12/12 10:32:02;;;;;;;747.90;699.10;;;4.50;99.90;;;;;;4993975;28;20441;-75
2023/12/12 10:34:28;;;;;;;768.70;717.15;;;4.60;99.90;;;;;;5020565;28;20042;-76
2023/12/12 10:36:57;;;;;;;834.50;777.60;;;4.70;99.90;;;;;;5009863;28;20053;-76
2023/12/12 10:39:23;;;;;;;748.38;697.88;;;4.80;99.90;;;;;;5011727;28;20044;-76
2023/12/12 10:41:55;;;;;;;770.50;720.73;;;4.90;99.90;;;;;;5012227;28;20042;-76
2023/12/12 10:44:28;;;;;;;811.28;757.13;;;5.00;99.90;;;;;;4999224;28;20530;-76
2023/12/12 10:46:54;;;;;;;808.20;754.72;;;5.10;99.90;;;;;;5007932;28;20042;-75
2023/12/12 10:49:31;;;;;;;799.47;746.40;;;5.20;99.90;;;;;;4985536;28;20042;-75
2023/12/12 10:51:59;;;;;;;748.92;701.28;;;5.30;99.90;;;;;;5010426;28;20049;-75
2023/12/12 10:54:26;;;;;;;744.40;695.38;;;5.40;99.90;;;;;;5010310;28;20137;-75
2023/12/12 10:56:53;;;;;;;786.90;736.10;;;5.40;99.90;;;;;;5010847;28;20033;-76
2023/12/12 10:59:21;;;;;;;790.90;738.97;;;5.40;99.90;;;;;;5010786;28;20096;-76
2023/12/12 11:01:47;;;;;;;822.42;767.10;;;5.50;99.90;;;;;;5011104;28;20116;-76
2023/12/12 11:04:17;;;;;;;821.80;768.75;;;5.50;99.90;;;;;;5010664;28;20045;-76
2023/12/12 11:06:43;;;;;;;805.63;753.95;;;5.50;99.90;;;;;;4998098;28;20038;-75
2023/12/12 11:09:10;;;;;;;828.80;775.72;;;5.60;99.90;;;;;;4991633;28;20088;-75
2023/12/12 11:11:42;;;;;;;812.38;759.13;;;5.60;99.90;;;;;;5011029;28;20077;-75
2023/12/12 11:14:11;;;;;;;838.72;781.47;;;5.60;99.90;;;;;;5026231;28;20038;-75
2023/12/12 11:16:37;;;;;;;836.88;779.08;;;5.70;99.90;;;;;;5012213;28;20108;-75
2023/12/12 11:19:04;;;;;;;925.38;857.42;;;5.80;99.90;;;;;;5010837;28;20104;-75
2023/12/12 11:21:49;;;;;;;879.17;818.03;;;5.80;99.90;;;;;;4995583;28;20049;-75
2023/12/12 11:24:17;;;;;;;860.10;801.58;;;5.90;99.90;;;;;;5010936;28;20037;-75
2023/12/12 11:26:45;;;;;;;844.20;786.30;;;5.80;99.90;;;;;;5010243;28;20104;-75
2023/12/12 11:29:15;;;;;;;879.80;820.70;;;5.80;99.90;;;;;;5009926;28;20050;-75
2023/12/12 11:31:56;;;;;;;871.72;810.58;;;5.90;99.90;;;;;;5016122;28;20494;-75
2023/12/12 11:34:23;;;;;;;842.78;786.03;;;5.90;99.90;;;;;;4983152;28;20116;-75
2023/12/12 11:36:59;;;;;;;833.15;778.17;;;5.90;99.90;;;;;;5000733;28;20048;-75
2023/12/12 11:39:51;;;;;;;884.35;823.92;;;5.90;99.90;;;;;;4987841;28;20042;-75
2023/12/12 11:42:21;;;;;;;826.53;771.30;;;5.90;99.90;;;;;;5008126;28;20081;-75
2023/12/12 11:44:49;;;;;;;839.05;783.10;;;5.90;99.90;;;;;;5016687;28;20053;-75
2023/12/12 11:47:27;;;;;;;852.97;795.60;;;5.90;99.90;;;;;;5010583;28;20046;-75
2023/12/12 11:50:19;;;;;;;843.88;785.90;;;5.90;99.90;;;;;;5004057;28;20042;-75
2023/12/12 11:52:45;;;;;;;861.03;800.70;;;5.90;99.90;;;;;;4987552;28;20413;-74
2023/12/12 11:55:19;;;;;;;874.75;813.17;;;5.90;99.90;;;;;;5010483;28;20030;-75
2023/12/12 11:57:46;;;;;;;816.97;762.05;;;6.00;99.90;;;;;;5010200;28;20133;-74
2023/12/12 12:00:20;;;;;;;845.38;787.40;;;6.00;99.90;;;;;;5007973;28;20079;-75
2023/12/12 12:02:46;;;;;;;854.33;795.30;;;6.10;99.90;;;;;;5009869;28;20060;-74
2023/12/12 12:05:12;;;;;;;898.40;834.17;;;6.10;99.90;;;;;;5015773;28;20037;-74
2023/12/12 12:07:38;;;;;;;878.47;816.07;;;6.10;99.90;;;;;;5011383;28;20048;-75
2023/12/12 12:10:05;;;;;;;850.90;791.15;;;6.10;99.90;;;;;;4996783;28;20038;-75
2023/12/12 12:12:31;;;;;;;842.90;785.65;;;6.20;99.90;;;;;;5009080;28;20038;-75
2023/12/12 12:15:05;;;;;;;855.57;795.90;;;6.10;99.90;;;;;;4996030;28;20041;-75
2023/12/12 12:17:35;;;;;;;863.33;802.63;;;6.20;99.90;;;;;;4994344;28;20505;-75
2023/12/12 12:20:01;;;;;;;892.05;827.58;;;6.10;99.90;;;;;;5010032;28;20038;-75